Time;durP1;ratioP1;P1;durP2;ratioP2;P2;SDS_P1;SDS_P2;PMS_P1;PMS_P2;Temp;Humidity;BMP_temperature;BMP_pressure;BME280_temperature;BME280_humidity;BME280_pressure;Samples;Min_cycle;Max_cycle;Signal;HPM_P1;HPM_P2
2022/04/13 00:00:28;;;;;;;4.85;0.82;;;14.70;92.20;;;;;;5036321;28;20043;-77
2022/04/13 00:02:56;;;;;;;4.00;0.90;;;14.70;92.30;;;;;;5008631;28;20028;-78
2022/04/13 00:05:22;;;;;;;3.75;0.90;;;14.70;92.30;;;;;;5019812;28;20024;-77
2022/04/13 00:07:49;;;;;;;6.75;3.58;;;14.70;92.30;;;;;;5007872;28;20033;-78
2022/04/13 00:10:15;;;;;;;10.15;6.10;;;14.70;92.30;;;;;;5057104;28;20021;-78
2022/04/13 00:12:45;;;;;;;12.75;7.43;;;14.70;92.40;;;;;;5008410;28;20037;-78
2022/04/13 00:15:12;;;;;;;12.27;7.47;;;14.60;92.40;;;;;;5022303;28;20041;-78
2022/04/13 00:17:39;;;;;;;13.90;7.97;;;14.60;92.40;;;;;;5040917;28;20051;-78
2022/04/13 00:20:07;;;;;;;16.05;9.15;;;14.60;92.50;;;;;;5050724;28;20033;-78
2022/04/13 00:22:37;;;;;;;11.68;6.13;;;14.60;92.60;;;;;;5058771;28;20020;-78
2022/04/13 00:25:05;;;;;;;12.23;6.00;;;14.50;92.70;;;;;;5037627;28;20049;-77
2022/04/13 00:27:33;;;;;;;13.98;8.30;;;14.50;92.80;;;;;;5020382;28;20044;-78
2022/04/13 00:29:59;;;;;;;12.88;7.32;;;14.50;92.90;;;;;;5038464;28;20008;-77
2022/04/13 00:32:26;;;;;;;8.35;5.18;;;14.40;93.00;;;;;;5028207;28;20684;-76
2022/04/13 00:35:04;;;;;;;8.32;4.47;;;14.40;93.10;;;;;;5002759;28;20316;-76
2022/04/13 00:37:37;;;;;;;7.30;2.50;;;14.40;93.20;;;;;;5038365;28;20045;-78
2022/04/13 00:40:05;;;;;;;3.33;1.10;;;14.30;93.20;;;;;;5017978;28;20049;-78
2022/04/13 00:42:33;;;;;;;2.92;0.85;;;14.30;93.20;;;;;;4967222;28;20041;-78
2022/04/13 00:45:01;;;;;;;2.80;0.70;;;14.30;93.30;;;;;;5005115;28;20030;-76
2022/04/13 00:47:28;;;;;;;2.58;0.75;;;14.20;93.30;;;;;;5010803;28;20037;-76
2022/04/13 00:49:56;;;;;;;3.40;1.05;;;14.20;93.40;;;;;;5022835;28;20026;-76
2022/04/13 00:52:27;;;;;;;2.83;0.80;;;14.20;93.50;;;;;;5024785;28;20021;-78
2022/04/13 00:54:56;;;;;;;4.68;0.60;;;14.20;93.50;;;;;;5017530;28;20131;-78
2022/04/13 00:57:27;;;;;;;3.78;0.80;;;14.20;93.60;;;;;;5002532;28;20048;-78
2022/04/13 00:59:56;;;;;;;3.88;0.90;;;14.20;93.70;;;;;;5023953;28;20033;-76
2022/04/13 01:02:29;;;;;;;2.95;0.98;;;14.20;93.80;;;;;;5012151;28;20056;-76
2022/04/13 01:05:00;;;;;;;4.55;1.20;;;14.20;93.90;;;;;;5027993;28;20034;-76
2022/04/13 01:07:33;;;;;;;3.08;0.70;;;14.10;94.10;;;;;;5017850;28;20273;-76
2022/04/13 01:10:05;;;;;;;3.47;0.85;;;14.10;94.10;;;;;;5021164;28;20042;-76
2022/04/13 01:12:38;;;;;;;3.05;0.80;;;14.00;94.20;;;;;;5003538;28;20038;-76
2022/04/13 01:15:05;;;;;;;2.65;1.20;;;14.00;94.30;;;;;;5038904;28;20021;-77
2022/04/13 01:17:46;;;;;;;3.13;0.80;;;13.90;94.30;;;;;;5042151;28;20029;-77
2022/04/13 01:20:22;;;;;;;7.60;1.42;;;13.90;94.40;;;;;;5021888;28;20048;-76
2022/04/13 01:22:48;;;;;;;3.85;1.00;;;13.80;94.50;;;;;;5017652;28;20041;-77
2022/04/13 01:25:14;;;;;;;2.78;0.90;;;13.80;94.60;;;;;;5036115;28;20396;-76
2022/04/13 01:27:44;;;;;;;4.18;0.90;;;13.70;94.80;;;;;;5021597;28;20047;-76
2022/04/13 01:30:13;;;;;;;4.45;0.60;;;13.70;94.90;;;;;;5024157;28;20009;-76
2022/04/13 01:32:39;;;;;;;3.33;0.77;;;13.60;95.00;;;;;;4989565;28;20049;-77
2022/04/13 01:35:10;;;;;;;4.28;1.40;;;13.60;95.20;;;;;;5019457;28;20033;-76
2022/04/13 01:37:36;;;;;;;4.88;0.93;;;13.50;95.20;;;;;;5016887;28;20048;-76
2022/04/13 01:40:03;;;;;;;4.60;0.90;;;13.50;95.40;;;;;;5021209;28;20037;-76
2022/04/13 01:42:29;;;;;;;3.53;0.95;;;13.40;95.50;;;;;;5019601;28;22856;-76
2022/04/13 01:44:56;;;;;;;4.82;0.98;;;13.40;95.60;;;;;;5019481;28;20032;-76
2022/04/13 01:47:22;;;;;;;4.35;1.00;;;13.30;95.70;;;;;;5037784;28;20032;-76
2022/04/13 01:49:48;;;;;;;3.45;0.80;;;13.30;95.90;;;;;;5005474;28;20017;-76
2022/04/13 01:52:15;;;;;;;4.70;1.30;;;13.30;96.00;;;;;;5005659;28;20428;-76
2022/04/13 01:54:41;;;;;;;5.30;1.10;;;13.20;96.10;;;;;;5021771;28;20037;-78
2022/04/13 01:57:08;;;;;;;6.18;1.40;;;13.20;96.20;;;;;;5036726;28;20041;-78
2022/04/13 01:59:34;;;;;;;7.32;1.33;;;13.10;96.30;;;;;;5007876;28;20036;-77
2022/04/13 02:02:04;;;;;;;3.05;0.90;;;13.10;96.40;;;;;;4985337;28;20040;-78
2022/04/13 02:04:31;;;;;;;4.03;1.00;;;13.10;96.60;;;;;;5004976;28;20041;-78
2022/04/13 02:06:58;;;;;;;5.05;1.02;;;13.00;96.70;;;;;;5036971;28;20041;-78
2022/04/13 02:09:25;;;;;;;3.65;1.10;;;13.00;96.80;;;;;;4981161;28;20033;-78
2022/04/13 02:11:51;;;;;;;4.15;1.15;;;12.90;96.90;;;;;;4996641;28;20384;-77
2022/04/13 02:14:18;;;;;;;4.03;1.00;;;12.90;97.00;;;;;;4972121;28;20029;-77
2022/04/13 02:16:45;;;;;;;2.38;0.80;;;12.90;97.10;;;;;;5018483;28;20055;-77
2022/04/13 02:19:15;;;;;;;3.35;1.00;;;12.80;97.10;;;;;;5004588;28;20333;-77
2022/04/13 02:21:44;;;;;;;4.47;1.40;;;12.80;97.20;;;;;;4975415;28;20028;-77
2022/04/13 02:24:14;;;;;;;4.97;1.27;;;12.80;97.20;;;;;;5033378;28;20033;-76
2022/04/13 02:26:41;;;;;;;6.75;1.48;;;12.80;97.30;;;;;;5039557;28;20033;-79
2022/04/13 02:29:11;;;;;;;7.28;1.95;;;12.80;97.40;;;;;;5003302;28;20056;-78
2022/04/13 02:31:40;;;;;;;4.60;1.52;;;12.80;97.50;;;;;;5021241;28;20045;-78
2022/04/13 02:34:06;;;;;;;4.47;1.52;;;12.80;97.60;;;;;;5032426;28;20048;-78
2022/04/13 02:36:33;;;;;;;5.22;1.55;;;12.80;97.70;;;;;;5058109;28;20041;-78
2022/04/13 02:39:03;;;;;;;9.55;1.85;;;12.70;97.80;;;;;;5056932;28;20040;-78
2022/04/13 02:41:34;;;;;;;7.20;1.75;;;12.80;97.90;;;;;;5042370;28;20040;-78
2022/04/13 02:44:01;;;;;;;4.75;1.38;;;12.70;98.30;;;;;;5022066;28;20394;-78
2022/04/13 02:46:27;;;;;;;6.53;1.67;;;12.80;98.10;;;;;;5024916;28;20031;-78
2022/04/13 02:49:02;;;;;;;4.00;1.40;;;12.80;98.30;;;;;;5023044;28;20047;-76
2022/04/13 02:51:34;;;;;;;7.13;1.60;;;12.80;98.40;;;;;;5055468;28;20055;-77
2022/04/13 02:54:08;;;;;;;5.00;1.48;;;12.80;98.70;;;;;;5036066;28;20045;-76
2022/04/13 02:56:41;;;;;;;4.45;1.60;;;12.80;98.60;;;;;;5039677;28;20016;-76
2022/04/13 02:59:09;;;;;;;5.28;1.85;;;12.90;98.70;;;;;;5037962;28;20325;-76
2022/04/13 03:01:36;;;;;;;4.72;1.77;;;12.90;98.80;;;;;;5025952;28;20027;-76
2022/04/13 03:04:05;;;;;;;6.50;2.40;;;12.90;98.80;;;;;;5025711;28;20468;-78
2022/04/13 03:06:33;;;;;;;4.40;2.15;;;12.90;98.90;;;;;;5066571;28;20039;-78
2022/04/13 03:08:59;;;;;;;4.65;1.98;;;12.90;99.00;;;;;;5029342;28;20479;-78
2022/04/13 03:11:26;;;;;;;5.93;2.03;;;13.00;99.20;;;;;;5040743;28;20017;-76
2022/04/13 03:13:53;;;;;;;7.00;2.83;;;13.00;99.30;;;;;;5018205;28;20017;-77
2022/04/13 03:16:20;;;;;;;7.95;2.40;;;13.00;99.50;;;;;;5036557;28;20352;-77
2022/04/13 03:18:47;;;;;;;6.28;2.45;;;13.00;99.60;;;;;;5004326;28;20036;-76
2022/04/13 03:21:13;;;;;;;7.22;2.15;;;12.90;99.70;;;;;;5023272;28;20036;-76
2022/04/13 03:23:40;;;;;;;6.13;2.38;;;12.90;99.90;;;;;;5008439;28;20033;-77
2022/04/13 03:26:07;;;;;;;5.53;2.70;;;12.90;99.90;;;;;;5019799;28;20025;-77
2022/04/13 03:28:34;;;;;;;6.22;1.98;;;12.90;99.90;;;;;;5009136;28;20167;-76
2022/04/13 03:31:00;;;;;;;5.95;3.58;;;12.90;99.90;;;;;;5008058;28;20032;-76
2022/04/13 03:33:27;;;;;;;9.55;2.97;;;12.80;99.90;;;;;;5017681;28;20412;-77
2022/04/13 03:35:53;;;;;;;8.70;3.63;;;12.90;99.90;;;;;;5022016;28;20384;-77
2022/04/13 03:38:20;;;;;;;9.02;3.30;;;12.90;99.90;;;;;;5013846;28;20047;-77
2022/04/13 03:40:46;;;;;;;9.25;3.10;;;12.80;99.90;;;;;;5023727;28;20506;-77
2022/04/13 03:43:13;;;;;;;5.63;2.80;;;12.80;99.90;;;;;;5004615;28;20031;-77
2022/04/13 03:45:39;;;;;;;6.10;2.95;;;12.80;99.90;;;;;;5024569;28;20388;-78
2022/04/13 03:48:05;;;;;;;5.90;2.75;;;12.80;99.90;;;;;;5009307;28;20041;-78
2022/04/13 03:50:33;;;;;;;7.05;2.70;;;12.80;99.90;;;;;;5023261;28;20036;-77
2022/04/13 03:52:59;;;;;;;7.82;2.92;;;12.70;99.90;;;;;;5038538;28;20482;-77
2022/04/13 03:55:25;;;;;;;5.25;2.83;;;12.70;99.90;;;;;;5021911;28;20033;-77
2022/04/13 03:57:52;;;;;;;8.30;2.95;;;12.70;99.90;;;;;;5038055;28;20040;-77
2022/04/13 04:00:18;;;;;;;6.20;2.78;;;12.60;99.90;;;;;;5024627;28;20055;-77
2022/04/13 04:02:45;;;;;;;7.78;3.03;;;12.50;99.90;;;;;;5036284;28;21234;-78
2022/04/13 04:05:12;;;;;;;6.43;2.88;;;12.50;99.90;;;;;;5058282;28;20037;-78
2022/04/13 04:07:38;;;;;;;8.55;2.97;;;12.40;99.90;;;;;;5035626;28;20483;-78
2022/04/13 04:10:06;;;;;;;5.47;2.85;;;12.30;99.90;;;;;;5038238;28;20025;-76
2022/04/13 04:12:39;;;;;;;6.85;2.17;;;12.20;99.90;;;;;;5054665;28;20364;-76
2022/04/13 04:15:09;;;;;;;6.22;2.17;;;12.20;99.90;;;;;;5037264;28;20017;-76
2022/04/13 04:17:36;;;;;;;5.57;2.28;;;12.10;99.90;;;;;;5019854;28;20032;-76
2022/04/13 04:20:04;;;;;;;8.15;3.08;;;12.00;99.90;;;;;;5040040;28;20122;-77
2022/04/13 04:22:32;;;;;;;7.45;3.70;;;12.00;99.90;;;;;;5055396;28;20040;-77
2022/04/13 04:25:04;;;;;;;5.25;3.13;;;12.00;99.90;;;;;;5054929;28;20029;-77
2022/04/13 04:27:31;;;;;;;5.50;2.80;;;11.90;99.90;;;;;;5008181;28;20052;-77
2022/04/13 04:29:57;;;;;;;8.48;2.95;;;11.90;99.90;;;;;;5008970;28;20395;-77
2022/04/13 04:32:27;;;;;;;4.97;2.50;;;11.80;99.90;;;;;;5033036;28;20028;-76
2022/04/13 04:34:55;;;;;;;7.03;3.03;;;11.80;99.90;;;;;;4998782;28;20502;-76
2022/04/13 04:37:21;;;;;;;6.57;2.97;;;11.70;99.90;;;;;;5017461;28;20038;-76
2022/04/13 04:39:51;;;;;;;8.18;3.47;;;11.70;99.90;;;;;;4989423;28;20470;-75
2022/04/13 04:42:19;;;;;;;6.85;2.92;;;11.60;99.90;;;;;;4990629;28;21931;-76
2022/04/13 04:44:46;;;;;;;7.43;3.40;;;11.50;99.90;;;;;;4994752;28;20056;-75
2022/04/13 04:47:12;;;;;;;7.97;3.35;;;11.50;99.90;;;;;;5039090;28;20037;-76
2022/04/13 04:49:40;;;;;;;12.27;6.28;;;11.40;99.90;;;;;;4991488;28;20033;-76
2022/04/13 04:52:07;;;;;;;19.88;11.65;;;11.40;99.90;;;;;;5039707;28;20041;-77
2022/04/13 04:54:33;;;;;;;10.68;5.93;;;11.40;99.90;;;;;;5023256;28;20025;-77
2022/04/13 04:57:03;;;;;;;11.60;6.60;;;11.30;99.90;;;;;;5005025;28;20029;-75
2022/04/13 04:59:32;;;;;;;15.35;7.00;;;11.30;99.90;;;;;;5003197;28;20025;-76
2022/04/13 05:02:02;;;;;;;9.63;5.43;;;11.30;99.90;;;;;;5003319;28;20404;-77
2022/04/13 05:04:34;;;;;;;9.98;5.28;;;11.20;99.90;;;;;;5001332;28;20037;-76
2022/04/13 05:07:02;;;;;;;11.32;6.05;;;11.20;99.90;;;;;;5038283;28;20022;-76
2022/04/13 05:09:29;;;;;;;11.52;5.82;;;11.20;99.90;;;;;;5018197;28;21384;-77
2022/04/13 05:11:57;;;;;;;9.50;4.90;;;11.20;99.90;;;;;;5011697;28;20029;-78
2022/04/13 05:14:25;;;;;;;10.52;6.78;;;11.20;99.90;;;;;;5021673;28;20056;-77
2022/04/13 05:16:51;;;;;;;12.30;6.65;;;11.20;99.90;;;;;;5008629;28;20037;-78
2022/04/13 05:19:18;;;;;;;10.70;6.18;;;11.10;99.90;;;;;;4976292;28;20025;-77
2022/04/13 05:21:44;;;;;;;16.63;9.35;;;11.20;99.90;;;;;;4999226;28;20022;-77
2022/04/13 05:24:10;;;;;;;14.02;7.90;;;11.20;99.90;;;;;;4999396;28;20029;-76
2022/04/13 05:26:37;;;;;;;14.32;7.63;;;11.20;99.90;;;;;;5005013;28;20393;-76
2022/04/13 05:29:03;;;;;;;11.30;6.32;;;11.20;99.90;;;;;;5023888;28;20048;-77
2022/04/13 05:31:30;;;;;;;10.73;6.22;;;11.20;99.90;;;;;;4989462;28;20381;-76
2022/04/13 05:33:57;;;;;;;12.07;5.70;;;11.20;99.90;;;;;;5033429;28;20059;-76
2022/04/13 05:36:23;;;;;;;9.57;5.38;;;11.30;99.90;;;;;;5022993;28;20013;-76
2022/04/13 05:38:50;;;;;;;8.68;5.30;;;11.40;99.90;;;;;;5021882;28;20024;-76
2022/04/13 05:41:16;;;;;;;9.52;5.68;;;11.50;99.90;;;;;;5046967;28;20021;-78
2022/04/13 05:43:43;;;;;;;9.68;5.80;;;11.60;99.90;;;;;;4991855;28;20036;-76
2022/04/13 05:46:09;;;;;;;9.27;5.47;;;11.80;99.90;;;;;;5008840;28;20029;-76
2022/04/13 05:48:35;;;;;;;10.85;6.47;;;11.90;99.90;;;;;;5022211;28;20507;-76
2022/04/13 05:51:02;;;;;;;8.70;6.00;;;12.00;99.90;;;;;;5009826;28;20017;-76
2022/04/13 05:53:28;;;;;;;7.75;5.97;;;12.10;99.90;;;;;;5023204;28;20032;-76
2022/04/13 05:55:57;;;;;;;13.65;5.68;;;12.20;99.90;;;;;;5007374;28;20134;-76
2022/04/13 05:58:27;;;;;;;9.85;6.00;;;12.30;99.90;;;;;;5024155;28;20040;-76
2022/04/13 06:00:54;;;;;;;10.30;5.78;;;12.40;99.90;;;;;;5007368;28;20035;-76
2022/04/13 06:03:23;;;;;;;10.73;6.00;;;12.40;99.90;;;;;;5004228;28;20017;-76
2022/04/13 06:05:50;;;;;;;10.70;5.63;;;12.50;99.90;;;;;;5019043;28;20960;-76
2022/04/13 06:08:17;;;;;;;8.60;5.95;;;12.50;99.90;;;;;;5021938;28;20035;-76
2022/04/13 06:10:44;;;;;;;11.55;6.07;;;12.60;99.90;;;;;;5025604;28;20469;-76
2022/04/13 06:13:10;;;;;;;13.50;5.47;;;12.70;99.90;;;;;;5005540;28;20403;-76
2022/04/13 06:15:36;;;;;;;9.70;6.47;;;12.90;99.90;;;;;;5021135;28;20043;-76
2022/04/13 06:18:04;;;;;;;13.75;8.35;;;13.00;99.90;;;;;;5019883;28;20050;-76
2022/04/13 06:20:30;;;;;;;12.25;7.80;;;13.10;99.90;;;;;;5020511;28;20423;-77
2022/04/13 06:22:56;;;;;;;13.80;8.85;;;13.20;99.90;;;;;;5020222;28;20036;-76
2022/04/13 06:25:23;;;;;;;12.00;8.05;;;13.20;99.90;;;;;;5010627;28;20029;-76
2022/04/13 06:27:53;;;;;;;14.95;9.35;;;13.20;99.90;;;;;;5036504;28;20041;-76
2022/04/13 06:30:20;;;;;;;17.35;9.00;;;13.30;99.90;;;;;;5024342;28;20487;-78
2022/04/13 06:32:50;;;;;;;16.02;8.60;;;13.30;99.90;;;;;;5040035;28;20697;-78
2022/04/13 06:35:17;;;;;;;12.55;7.30;;;13.30;99.90;;;;;;5003372;28;20044;-76
2022/04/13 06:37:47;;;;;;;12.07;7.90;;;13.40;99.90;;;;;;5056326;28;20025;-78
2022/04/13 06:40:14;;;;;;;12.27;8.40;;;13.60;99.90;;;;;;5041629;28;20460;-77
2022/04/13 06:42:41;;;;;;;12.65;8.45;;;13.80;99.90;;;;;;5007142;28;20127;-78
2022/04/13 06:45:10;;;;;;;12.73;8.52;;;14.00;99.90;;;;;;5039911;28;20032;-77
2022/04/13 06:47:47;;;;;;;13.57;8.15;;;14.30;99.90;;;;;;5011944;28;20044;-77
2022/04/13 06:50:18;;;;;;;17.40;9.68;;;14.60;99.90;;;;;;5024305;28;20044;-76
2022/04/13 06:52:46;;;;;;;14.13;9.30;;;14.80;99.90;;;;;;5057166;28;20044;-76
2022/04/13 06:55:18;;;;;;;13.02;8.48;;;15.00;99.90;;;;;;5036680;28;20040;-77
2022/04/13 06:57:54;;;;;;;13.00;8.20;;;15.20;99.90;;;;;;5060067;28;20372;-77
2022/04/13 07:00:28;;;;;;;11.80;7.68;;;15.30;99.90;;;;;;5039695;28;20033;-76
2022/04/13 07:02:58;;;;;;;10.07;7.85;;;15.50;99.90;;;;;;5005490;28;20043;-76
2022/04/13 07:05:36;;;;;;;14.27;8.13;;;15.60;99.90;;;;;;5054962;28;20033;-76
2022/04/13 07:08:05;;;;;;;13.30;8.57;;;15.80;99.90;;;;;;5023026;28;20048;-76
2022/04/13 07:10:35;;;;;;;15.32;8.48;;;15.90;99.90;;;;;;5037721;28;20033;-76
2022/04/13 07:13:04;;;;;;;12.60;7.75;;;16.10;99.90;;;;;;5017539;28;20041;-76
2022/04/13 07:15:33;;;;;;;11.63;8.82;;;16.20;99.90;;;;;;5007462;28;20024;-77
2022/04/13 07:18:03;;;;;;;12.40;8.75;;;16.30;99.90;;;;;;5022658;28;20464;-77
2022/04/13 07:20:30;;;;;;;12.52;7.78;;;16.40;99.90;;;;;;5037004;28;20016;-75
2022/04/13 07:22:56;;;;;;;12.52;7.03;;;16.40;99.90;;;;;;5056638;28;20024;-76
2022/04/13 07:25:23;;;;;;;10.15;7.07;;;16.40;99.90;;;;;;5021279;28;20035;-76
2022/04/13 07:27:50;;;;;;;12.82;7.43;;;16.40;99.90;;;;;;5008678;28;20045;-76
2022/04/13 07:30:17;;;;;;;14.52;7.90;;;16.40;99.90;;;;;;5036769;28;20025;-77
2022/04/13 07:32:45;;;;;;;13.63;8.40;;;16.40;99.90;;;;;;5053705;28;20024;-77
2022/04/13 07:35:13;;;;;;;13.35;8.80;;;16.40;99.90;;;;;;5002750;28;20472;-77
2022/04/13 07:37:39;;;;;;;11.98;8.52;;;16.40;99.90;;;;;;5034250;28;20033;-77
2022/04/13 07:40:10;;;;;;;13.20;9.23;;;16.40;99.90;;;;;;5037637;28;20028;-77
2022/04/13 07:42:37;;;;;;;13.55;8.70;;;16.50;99.90;;;;;;5020669;28;20043;-77
2022/04/13 07:45:05;;;;;;;12.45;8.52;;;16.50;99.90;;;;;;5018467;28;20020;-77
2022/04/13 07:47:32;;;;;;;12.20;8.05;;;16.60;99.90;;;;;;5023418;28;20025;-77
2022/04/13 07:49:59;;;;;;;13.73;8.95;;;16.80;99.90;;;;;;5022759;28;20043;-77
2022/04/13 07:52:25;;;;;;;15.98;9.65;;;16.90;99.90;;;;;;5020059;28;20495;-76
2022/04/13 07:54:52;;;;;;;10.57;6.78;;;17.00;99.90;;;;;;5016968;28;20033;-76
2022/04/13 07:57:18;;;;;;;13.27;8.77;;;16.90;99.90;;;;;;5019877;28;20012;-77
2022/04/13 07:59:45;;;;;;;13.65;8.45;;;16.80;99.90;;;;;;5039540;28;20510;-76
2022/04/13 08:02:11;;;;;;;8.70;6.25;;;16.80;99.90;;;;;;5053329;28;20388;-76
2022/04/13 08:04:37;;;;;;;10.85;7.30;;;16.80;99.90;;;;;;5065100;28;20028;-75
2022/04/13 08:07:04;;;;;;;12.52;8.10;;;16.90;99.90;;;;;;5042556;28;20032;-76
2022/04/13 08:09:30;;;;;;;12.40;7.50;;;16.90;99.90;;;;;;5076051;28;20039;-75
2022/04/13 08:11:57;;;;;;;7.75;5.93;;;16.90;99.90;;;;;;5041557;28;20020;-75
2022/04/13 08:14:23;;;;;;;9.55;6.32;;;16.90;99.90;;;;;;5054843;28;20024;-75
2022/04/13 08:16:50;;;;;;;9.13;6.88;;;16.90;99.90;;;;;;5042068;28;20443;-75
2022/04/13 08:19:17;;;;;;;13.25;9.02;;;17.00;99.90;;;;;;5041440;28;20028;-75
2022/04/13 08:21:43;;;;;;;14.48;9.35;;;17.10;99.90;;;;;;5057432;28;20036;-75
2022/04/13 08:24:09;;;;;;;15.50;10.43;;;17.30;99.90;;;;;;5054835;28;20028;-75
2022/04/13 08:26:36;;;;;;;14.60;10.32;;;17.50;99.90;;;;;;5077446;28;20024;-75
2022/04/13 08:29:03;;;;;;;14.05;11.20;;;17.70;99.90;;;;;;5060827;28;20044;-75
2022/04/13 08:31:29;;;;;;;14.93;10.55;;;17.80;99.90;;;;;;5058933;28;20012;-75
2022/04/13 08:33:56;;;;;;;13.98;8.77;;;17.90;99.90;;;;;;5054034;28;20048;-75
2022/04/13 08:36:22;;;;;;;12.48;9.73;;;18.00;99.90;;;;;;5058400;28;20511;-75
2022/04/13 08:38:48;;;;;;;12.23;7.97;;;17.90;99.90;;;;;;5058293;28;20040;-75
2022/04/13 08:41:34;;;;;;;13.57;9.50;;;17.90;99.90;;;;;;5048537;28;20031;-75
2022/04/13 08:44:28;;;;;;;16.52;10.10;;;17.90;99.90;;;;;;5073766;28;20024;-75
2022/04/13 08:47:00;;;;;;;15.40;10.63;;;18.00;99.90;;;;;;5050907;28;20032;-75
2022/04/13 08:49:28;;;;;;;13.82;8.60;;;18.20;99.90;;;;;;5073686;28;20028;-75
2022/04/13 08:52:03;;;;;;;15.85;9.95;;;18.30;99.90;;;;;;5044096;28;20375;-75
2022/04/13 08:54:34;;;;;;;12.88;7.45;;;18.50;99.90;;;;;;5075306;28;20020;-75
2022/04/13 08:57:02;;;;;;;15.27;11.02;;;18.70;99.90;;;;;;5057450;28;20017;-75
2022/04/13 09:00:05;;;;;;;11.70;8.27;;;18.90;99.90;;;;;;5038595;28;20028;-75
2022/04/13 09:02:50;;;;;;;14.00;9.85;;;19.00;99.90;;;;;;5055754;28;20488;-75
2022/04/13 09:05:19;;;;;;;11.55;8.27;;;19.20;99.90;;;;;;5044630;28;20046;-75
2022/04/13 09:07:49;;;;;;;12.30;7.93;;;19.30;99.90;;;;;;5061282;28;20028;-76
2022/04/13 09:10:23;;;;;;;11.85;8.05;;;19.50;99.90;;;;;;5075376;28;20383;-75
2022/04/13 09:12:51;;;;;;;9.65;6.65;;;19.70;99.90;;;;;;5076609;28;20020;-76
2022/04/13 09:15:17;;;;;;;9.25;6.47;;;19.90;99.90;;;;;;5080133;28;20410;-76
2022/04/13 09:17:45;;;;;;;10.02;6.82;;;20.10;99.90;;;;;;5081283;28;20016;-76
2022/04/13 09:20:11;;;;;;;10.50;5.90;;;20.30;99.90;;;;;;5019603;28;20036;-77
2022/04/13 09:22:42;;;;;;;10.57;6.18;;;20.50;99.90;;;;;;5062084;28;21112;-77
2022/04/13 09:25:11;;;;;;;10.02;6.03;;;20.70;99.90;;;;;;5057347;28;20040;-76
2022/04/13 09:27:38;;;;;;;11.52;6.40;;;20.80;99.90;;;;;;5030427;28;20055;-76
2022/04/13 09:30:09;;;;;;;8.63;5.82;;;21.10;99.60;;;;;;5060677;28;20398;-76
2022/04/13 09:32:50;;;;;;;7.70;5.15;;;21.10;99.00;;;;;;5043573;28;20491;-76
2022/04/13 09:35:18;;;;;;;8.75;4.75;;;21.40;98.40;;;;;;5041944;28;20484;-76
2022/04/13 09:37:46;;;;;;;9.38;5.13;;;21.60;98.10;;;;;;5018974;28;20036;-77
2022/04/13 09:40:37;;;;;;;6.53;4.13;;;21.90;97.50;;;;;;5056475;28;20021;-77
2022/04/13 09:43:16;;;;;;;7.20;3.22;;;22.10;96.80;;;;;;5039331;28;20025;-77
2022/04/13 09:45:47;;;;;;;5.03;3.17;;;22.50;95.70;;;;;;5038136;28;22387;-77
2022/04/13 09:48:18;;;;;;;4.93;2.70;;;22.70;95.10;;;;;;5030160;28;20029;-77
2022/04/13 09:50:47;;;;;;;3.47;2.83;;;22.90;94.50;;;;;;5055766;28;20465;-77
2022/04/13 09:53:15;;;;;;;6.50;3.10;;;23.00;93.80;;;;;;5037480;28;20051;-76
2022/04/13 09:55:44;;;;;;;4.43;2.30;;;23.10;93.20;;;;;;5059573;28;20041;-77
2022/04/13 09:58:17;;;;;;;4.72;2.13;;;23.40;92.50;;;;;;5022240;28;20376;-77
2022/04/13 10:00:54;;;;;;;5.55;2.67;;;23.40;91.80;;;;;;5039710;28;20016;-77
2022/04/13 10:03:22;;;;;;;3.13;1.55;;;23.30;91.60;;;;;;5037837;28;20024;-75
2022/04/13 10:05:51;;;;;;;5.38;2.08;;;23.10;91.40;;;;;;5037416;28;20456;-75
2022/04/13 10:08:24;;;;;;;5.32;2.47;;;23.00;91.20;;;;;;5058376;28;20032;-75
2022/04/13 10:10:54;;;;;;;6.45;2.63;;;22.80;90.90;;;;;;5038562;28;20013;-75
2022/04/13 10:13:34;;;;;;;4.65;1.70;;;22.70;91.10;;;;;;5009638;28;20021;-75
2022/04/13 10:16:07;;;;;;;4.22;1.65;;;22.50;91.10;;;;;;5031674;28;20037;-75
2022/04/13 10:18:57;;;;;;;5.40;2.08;;;22.40;91.10;;;;;;5040733;28;20012;-75
2022/04/13 10:21:36;;;;;;;4.93;2.35;;;22.10;91.20;;;;;;5051765;28;20108;-76
2022/04/13 10:24:03;;;;;;;5.82;3.53;;;21.90;91.30;;;;;;5050438;28;20040;-76
2022/04/13 10:26:30;;;;;;;6.75;3.00;;;21.60;91.40;;;;;;5058006;28;20364;-75
2022/04/13 10:28:59;;;;;;;5.30;2.97;;;21.40;91.80;;;;;;5026836;28;20052;-76
2022/04/13 10:31:26;;;;;;;4.75;3.10;;;21.20;92.10;;;;;;5023362;28;20017;-76
2022/04/13 10:33:52;;;;;;;9.82;3.65;;;21.10;92.20;;;;;;5052889;28;20049;-76
2022/04/13 10:36:19;;;;;;;8.48;4.45;;;21.10;92.50;;;;;;5050164;28;20472;-76
2022/04/13 10:38:46;;;;;;;8.68;3.65;;;21.00;92.60;;;;;;5032654;28;20328;-76
2022/04/13 10:41:18;;;;;;;5.53;3.33;;;20.90;92.80;;;;;;5026038;28;20032;-77
2022/04/13 10:43:48;;;;;;;4.85;2.67;;;20.90;93.00;;;;;;5021267;28;20034;-76
2022/04/13 10:46:19;;;;;;;6.28;2.58;;;20.80;93.00;;;;;;5060425;28;20961;-76
2022/04/13 10:48:53;;;;;;;5.75;3.30;;;20.80;93.10;;;;;;5026531;28;20036;-77
2022/04/13 10:51:28;;;;;;;6.05;3.08;;;20.70;93.10;;;;;;5041909;28;20028;-77
2022/04/13 10:54:08;;;;;;;5.70;2.10;;;20.60;93.20;;;;;;5052268;28;20024;-76
2022/04/13 10:56:39;;;;;;;4.80;2.38;;;20.50;93.20;;;;;;5040255;28;22854;-76
2022/04/13 10:59:21;;;;;;;6.35;2.45;;;20.40;93.20;;;;;;5041430;28;20035;-76
2022/04/13 11:01:58;;;;;;;3.42;2.15;;;20.30;93.20;;;;;;5037294;28;20047;-76
2022/04/13 11:04:33;;;;;;;2.65;1.73;;;20.10;93.20;;;;;;5022084;28;20035;-76
2022/04/13 11:07:01;;;;;;;3.55;1.88;;;20.10;93.40;;;;;;5012480;28;20032;-76
2022/04/13 11:09:36;;;;;;;3.67;1.92;;;20.00;93.50;;;;;;5059825;28;20020;-76
2022/04/13 11:12:06;;;;;;;3.60;2.13;;;19.90;93.60;;;;;;5001575;28;20044;-76
2022/04/13 11:14:53;;;;;;;6.25;3.55;;;19.90;93.70;;;;;;5041503;28;20456;-77
2022/04/13 11:17:21;;;;;;;5.82;2.83;;;19.90;93.70;;;;;;5021817;28;20384;-76
2022/04/13 11:19:49;;;;;;;6.18;2.72;;;19.80;93.90;;;;;;5058253;28;20052;-76
2022/04/13 11:22:19;;;;;;;3.38;2.33;;;19.80;93.90;;;;;;5043473;28;20048;-76
2022/04/13 11:24:45;;;;;;;6.35;2.72;;;19.90;93.80;;;;;;5017320;28;20032;-76
2022/04/13 11:27:12;;;;;;;4.45;2.63;;;20.00;93.80;;;;;;5053345;28;20036;-76
2022/04/13 11:29:44;;;;;;;5.63;2.38;;;20.00;94.00;;;;;;5035222;28;20055;-76
2022/04/13 11:32:13;;;;;;;3.75;2.70;;;20.10;93.80;;;;;;5004962;28;20313;-75
2022/04/13 11:34:50;;;;;;;5.05;2.72;;;20.00;93.80;;;;;;5029487;28;20053;-75
2022/04/13 11:37:23;;;;;;;6.15;3.53;;;20.00;93.90;;;;;;5058328;28;20028;-75
2022/04/13 11:39:56;;;;;;;8.30;3.50;;;20.00;94.00;;;;;;5032393;28;20023;-76
2022/04/13 11:42:28;;;;;;;4.95;2.97;;;20.00;94.10;;;;;;5037067;28;20032;-76
2022/04/13 11:45:12;;;;;;;6.93;2.88;;;19.80;94.00;;;;;;5004768;28;20033;-76
2022/04/13 11:47:48;;;;;;;4.40;2.20;;;19.70;94.20;;;;;;5032291;28;20029;-76
2022/04/13 11:50:16;;;;;;;5.45;2.70;;;19.60;94.30;;;;;;5009173;28;20042;-76
2022/04/13 11:53:01;;;;;;;5.65;2.97;;;19.60;94.40;;;;;;5054946;28;20017;-76
2022/04/13 11:55:31;;;;;;;6.20;2.45;;;19.50;94.50;;;;;;5029194;28;20016;-76
2022/04/13 11:58:04;;;;;;;4.03;2.65;;;19.50;94.50;;;;;;5038603;28;20031;-76
2022/04/13 12:00:50;;;;;;;8.98;3.50;;;19.50;94.50;;;;;;5037880;28;20460;-76
2022/04/13 12:03:20;;;;;;;8.57;3.55;;;19.40;94.60;;;;;;5021277;28;20041;-76
2022/04/13 12:05:55;;;;;;;6.90;2.55;;;19.40;94.80;;;;;;5000383;28;20036;-76
2022/04/13 12:08:27;;;;;;;7.88;2.90;;;19.40;95.00;;;;;;5055808;28;20048;-76
2022/04/13 12:11:00;;;;;;;7.18;3.42;;;19.30;95.10;;;;;;5038468;28;20024;-76
2022/04/13 12:13:33;;;;;;;6.60;2.25;;;19.20;95.20;;;;;;5053792;28;20731;-76
2022/04/13 12:16:01;;;;;;;6.10;3.25;;;19.20;95.30;;;;;;5054056;28;20033;-76
2022/04/13 12:18:29;;;;;;;7.00;3.20;;;19.20;95.50;;;;;;5006453;28;20140;-76
2022/04/13 12:21:08;;;;;;;9.15;3.35;;;19.10;95.70;;;;;;5055881;28;20043;-76
2022/04/13 12:23:36;;;;;;;7.13;2.95;;;19.00;95.80;;;;;;5031915;28;20025;-76
2022/04/13 12:26:03;;;;;;;8.13;3.85;;;19.00;95.90;;;;;;5007620;28;20024;-76
2022/04/13 12:28:29;;;;;;;7.43;3.35;;;19.00;96.10;;;;;;5021711;28;20036;-76
2022/04/13 12:31:03;;;;;;;5.28;2.50;;;19.00;96.10;;;;;;5038164;28;20031;-76
2022/04/13 12:33:31;;;;;;;5.82;3.15;;;19.00;96.20;;;;;;5002493;28;20060;-76
2022/04/13 12:36:00;;;;;;;6.20;2.47;;;19.00;96.40;;;;;;5038236;28;20039;-76
2022/04/13 12:38:38;;;;;;;8.95;3.42;;;19.00;96.50;;;;;;5039160;28;20128;-76
2022/04/13 12:41:14;;;;;;;4.03;2.20;;;19.00;96.60;;;;;;5059238;28;20016;-76
2022/04/13 12:43:57;;;;;;;6.30;3.22;;;18.90;96.70;;;;;;5035254;28;21723;-76
2022/04/13 12:46:26;;;;;;;9.07;4.55;;;18.90;96.70;;;;;;5056204;28;20017;-76
2022/04/13 12:48:55;;;;;;;6.80;2.92;;;18.80;96.50;;;;;;5027117;28;20051;-76
2022/04/13 12:51:22;;;;;;;7.70;3.53;;;18.70;96.80;;;;;;5063088;28;20332;-75
2022/04/13 12:53:55;;;;;;;5.95;3.00;;;18.60;97.00;;;;;;5022010;28;20040;-74